createdAt,value
2017-12-03T00:00:51.693Z,2.70
2017-12-03T00:03:20.391Z,2.60
2017-12-03T00:05:49.067Z,2.70
2017-12-03T00:08:17.746Z,2.60
2017-12-03T00:10:46.422Z,2.60
2017-12-03T00:13:15.119Z,2.60
2017-12-03T00:15:43.941Z,2.70
2017-12-03T00:18:13.429Z,2.80
2017-12-03T00:20:42.105Z,2.70
2017-12-03T00:23:17.033Z,2.80
2017-12-03T00:25:51.938Z,2.90
2017-12-03T00:28:26.868Z,2.90
2017-12-03T00:30:57.883Z,2.90
2017-12-03T00:33:32.864Z,2.90
2017-12-03T00:36:07.666Z,2.90
2017-12-03T00:38:40.978Z,2.80
2017-12-03T00:41:09.675Z,2.70
2017-12-03T00:43:40.335Z,2.80
2017-12-03T00:46:09.034Z,2.80
2017-12-03T00:48:38.488Z,2.80
2017-12-03T00:51:07.236Z,2.70
2017-12-03T00:53:36.687Z,2.70
2017-12-03T00:56:06.179Z,2.70
2017-12-03T00:58:34.867Z,2.70
2017-12-03T01:01:03.550Z,2.70
2017-12-03T01:03:32.239Z,2.70
2017-12-03T01:06:07.986Z,2.80
2017-12-03T01:08:37.710Z,2.70
2017-12-03T01:11:12.502Z,2.80
2017-12-03T01:13:41.200Z,2.80
2017-12-03T01:16:16.059Z,2.90
2017-12-03T01:18:44.752Z,2.90
2017-12-03T01:21:19.694Z,2.90
2017-12-03T01:23:54.534Z,2.90
2017-12-03T01:26:29.525Z,2.90
2017-12-03T01:28:59.956Z,2.90
2017-12-03T01:31:28.635Z,2.80
2017-12-03T01:33:57.314Z,2.80
2017-12-03T01:36:26.002Z,2.80
2017-12-03T01:38:54.674Z,2.80
2017-12-03T01:41:23.380Z,2.80
2017-12-03T01:43:52.063Z,2.80
2017-12-03T01:46:27.727Z,2.80
2017-12-03T01:48:56.408Z,2.80
2017-12-03T01:51:25.947Z,2.80
2017-12-03T01:54:01.642Z,2.90
2017-12-03T01:56:30.343Z,2.80
2017-12-03T01:59:05.139Z,2.90
2017-12-03T02:01:35.819Z,2.90
2017-12-03T02:04:04.503Z,2.90
2017-12-03T02:06:40.367Z,2.90
2017-12-03T02:09:15.379Z,2.90
2017-12-03T02:11:45.704Z,2.90
2017-12-03T02:14:16.020Z,2.90
2017-12-03T02:16:44.700Z,2.80
2017-12-03T02:19:13.383Z,2.90
2017-12-03T02:21:48.204Z,2.80
2017-12-03T02:24:17.855Z,2.70
2017-12-03T02:26:46.535Z,2.70
2017-12-03T02:29:15.218Z,2.60
2017-12-03T02:31:43.903Z,2.60
2017-12-03T02:34:12.594Z,2.60
2017-12-03T02:36:41.276Z,2.60
2017-12-03T02:39:09.950Z,2.70
2017-12-03T02:41:39.320Z,2.80
2017-12-03T02:44:09.284Z,2.80
2017-12-03T02:46:37.940Z,2.70
2017-12-03T02:49:08.269Z,2.90
2017-12-03T02:51:36.979Z,2.80
2017-12-03T02:54:12.702Z,2.80
2017-12-03T02:56:41.399Z,2.80
2017-12-03T02:59:16.189Z,2.80
2017-12-03T03:01:44.883Z,2.70
2017-12-03T03:04:13.559Z,2.70
2017-12-03T03:06:42.243Z,2.70
2017-12-03T03:09:10.921Z,2.70
2017-12-03T03:11:40.455Z,2.70
2017-12-03T03:14:09.139Z,2.70
2017-12-03T03:16:38.670Z,2.60
2017-12-03T03:19:07.363Z,2.60
2017-12-03T03:21:36.036Z,2.60
2017-12-03T03:24:04.719Z,2.70
2017-12-03T03:26:33.399Z,2.70
2017-12-03T03:29:02.082Z,2.60
2017-12-03T03:31:31.632Z,2.70
2017-12-03T03:34:01.095Z,2.70
2017-12-03T03:36:29.782Z,2.60
2017-12-03T03:38:59.415Z,2.70
2017-12-03T03:41:34.338Z,2.70
2017-12-03T03:44:03.015Z,2.70
2017-12-03T03:46:31.734Z,2.70
2017-12-03T03:49:00.427Z,2.70
2017-12-03T03:51:35.371Z,2.70
2017-12-03T03:54:04.058Z,2.60
2017-12-03T03:56:32.739Z,2.60
2017-12-03T03:59:02.242Z,2.60
2017-12-03T04:01:30.935Z,2.60
2017-12-03T04:04:00.455Z,2.70
2017-12-03T04:06:29.278Z,2.70
2017-12-03T04:08:59.574Z,2.60
2017-12-03T04:11:28.280Z,2.60
2017-12-03T04:13:56.966Z,2.60
2017-12-03T04:16:31.897Z,2.50
2017-12-03T04:19:00.575Z,2.50
2017-12-03T04:21:29.365Z,2.50
2017-12-03T04:23:58.027Z,2.50
2017-12-03T04:26:26.807Z,2.50
2017-12-03T04:28:56.351Z,2.50
2017-12-03T04:31:25.027Z,2.50
2017-12-03T04:33:59.834Z,2.50
2017-12-03T04:36:28.507Z,2.50
2017-12-03T04:39:03.363Z,2.60
2017-12-03T04:41:32.252Z,2.60
2017-12-03T04:44:00.927Z,2.60
2017-12-03T04:46:29.606Z,2.60
2017-12-03T04:48:58.291Z,2.60
2017-12-03T04:51:26.979Z,2.60
2017-12-03T04:53:55.660Z,2.60
2017-12-03T04:56:24.334Z,2.60
2017-12-03T04:58:53.010Z,2.60
2017-12-03T05:01:27.834Z,2.70
2017-12-03T05:03:57.278Z,2.70
2017-12-03T05:06:33.559Z,2.60
2017-12-03T05:09:02.235Z,2.60
2017-12-03T05:11:30.910Z,2.60
2017-12-03T05:13:59.604Z,2.60
2017-12-03T05:16:28.336Z,2.60
2017-12-03T05:19:03.034Z,2.60
2017-12-03T05:21:31.711Z,2.50
2017-12-03T05:24:07.457Z,2.60
2017-12-03T05:26:40.482Z,2.50
2017-12-03T05:29:15.447Z,2.50
2017-12-03T05:31:44.126Z,2.60
2017-12-03T05:34:13.575Z,2.60
2017-12-03T05:36:47.994Z,2.50
2017-12-03T05:39:18.303Z,2.60
2017-12-03T05:41:53.111Z,2.60
2017-12-03T05:44:21.791Z,2.60
2017-12-03T05:46:56.778Z,2.60
2017-12-03T05:49:25.458Z,2.70
2017-12-03T05:51:54.937Z,2.60
2017-12-03T05:54:23.624Z,2.60
2017-12-03T05:56:53.157Z,2.60
2017-12-03T05:59:27.963Z,2.60
2017-12-03T06:01:56.646Z,2.60
2017-12-03T06:04:25.333Z,2.60
2017-12-03T06:06:54.051Z,2.60
2017-12-03T06:09:28.995Z,2.70
2017-12-03T06:11:57.670Z,2.70
2017-12-03T06:14:26.346Z,2.70
2017-12-03T06:16:55.336Z,2.80
2017-12-03T06:19:24.328Z,2.70
2017-12-03T06:22:19.491Z,2.70
2017-12-03T06:24:48.178Z,2.80
2017-12-03T06:27:16.930Z,2.80
2017-12-03T06:29:45.679Z,2.70
2017-12-03T06:32:14.614Z,2.70
2017-12-03T06:34:49.536Z,2.80
2017-12-03T06:37:18.240Z,2.80
2017-12-03T06:39:53.214Z,2.80
2017-12-03T06:42:28.071Z,2.80
2017-12-03T06:44:56.754Z,2.80
2017-12-03T06:47:31.654Z,2.80
2017-12-03T06:50:00.331Z,2.80
2017-12-03T06:52:35.295Z,2.80
2017-12-03T06:55:10.271Z,2.80
2017-12-03T06:57:39.726Z,2.70
2017-12-03T07:00:14.551Z,2.60
2017-12-03T07:02:49.375Z,2.60
2017-12-03T07:05:24.219Z,2.60
2017-12-03T07:07:52.912Z,2.60
2017-12-03T07:10:24.447Z,2.60
2017-12-03T07:12:54.098Z,2.60
2017-12-03T07:15:29.231Z,2.70
2017-12-03T07:17:57.923Z,2.70
2017-12-03T07:20:32.721Z,2.70
2017-12-03T07:23:02.427Z,2.70
2017-12-03T07:25:31.111Z,2.70
2017-12-03T07:27:59.782Z,2.70
2017-12-03T07:30:28.472Z,2.80
2017-12-03T07:32:57.147Z,2.80
2017-12-03T07:35:25.830Z,2.90
2017-12-03T07:38:00.627Z,2.90
2017-12-03T07:40:30.087Z,3.00
2017-12-03T07:42:58.763Z,2.90
2017-12-03T07:45:27.434Z,3.00
2017-12-03T07:48:03.001Z,3.00
2017-12-03T07:50:37.787Z,3.00
2017-12-03T07:53:06.543Z,3.00
2017-12-03T07:55:35.287Z,3.10
2017-12-03T07:58:03.951Z,3.00
2017-12-03T08:00:33.590Z,3.00
2017-12-03T08:03:02.294Z,3.00
2017-12-03T08:05:30.975Z,3.00
2017-12-03T08:07:59.655Z,3.00
2017-12-03T08:10:34.433Z,2.90
2017-12-03T08:13:03.114Z,2.90
2017-12-03T08:15:37.946Z,2.90
2017-12-03T08:18:06.629Z,2.90
2017-12-03T08:20:36.080Z,3.00
2017-12-03T08:23:04.759Z,2.90
2017-12-03T08:25:39.687Z,3.00
2017-12-03T08:28:14.542Z,3.00
2017-12-03T08:30:49.471Z,3.00
2017-12-03T08:33:18.244Z,3.10
2017-12-03T08:35:46.919Z,3.10
2017-12-03T08:38:15.607Z,3.20
2017-12-03T08:40:52.387Z,3.20
2017-12-03T08:43:21.073Z,3.30
2017-12-03T08:45:55.886Z,3.40
2017-12-03T08:48:30.807Z,3.50
2017-12-03T08:50:59.478Z,3.60
2017-12-03T08:53:28.218Z,3.60
2017-12-03T08:55:56.996Z,3.70
2017-12-03T08:58:25.808Z,3.70
2017-12-03T09:00:54.617Z,3.70
2017-12-03T09:03:23.283Z,3.70
2017-12-03T09:05:51.963Z,3.70
2017-12-03T09:08:27.982Z,3.70
2017-12-03T09:11:02.901Z,3.70
2017-12-03T09:13:32.544Z,3.70
2017-12-03T09:16:01.232Z,3.70
2017-12-03T09:18:29.906Z,3.70
2017-12-03T09:20:58.603Z,3.70
2017-12-03T09:23:33.562Z,3.70
2017-12-03T09:26:02.235Z,3.80
2017-12-03T09:28:37.019Z,3.90
2017-12-03T09:31:05.695Z,4.00
2017-12-03T09:33:40.850Z,4.10
2017-12-03T09:36:09.536Z,4.20
2017-12-03T09:38:44.451Z,4.10
2017-12-03T09:41:19.455Z,4.00
2017-12-03T09:43:48.945Z,3.90
2017-12-03T09:46:18.469Z,4.00
2017-12-03T09:48:48.143Z,3.90
2017-12-03T09:51:16.836Z,4.00
2017-12-03T09:53:51.611Z,4.10
2017-12-03T09:56:20.299Z,4.20
2017-12-03T09:58:55.047Z,4.30
2017-12-03T10:01:23.735Z,4.40
2017-12-03T10:03:59.474Z,4.80
2017-12-03T10:06:28.158Z,4.70
2017-12-03T10:08:56.836Z,5.00
2017-12-03T10:11:31.718Z,5.10
2017-12-03T10:14:00.403Z,5.30
2017-12-03T10:16:31.015Z,5.40
2017-12-03T10:19:01.335Z,5.40
2017-12-03T10:21:30.822Z,5.30
2017-12-03T10:23:59.506Z,5.30
2017-12-03T10:26:28.187Z,5.30
2017-12-03T10:28:56.871Z,5.00
2017-12-03T10:31:25.546Z,4.80
2017-12-03T10:33:54.239Z,4.70
2017-12-03T10:36:30.150Z,4.70
2017-12-03T10:38:58.834Z,4.70
2017-12-03T10:41:33.762Z,4.70
2017-12-03T10:44:08.547Z,4.70
2017-12-03T10:46:44.112Z,4.80
2017-12-03T10:49:13.643Z,4.70
2017-12-03T10:51:42.322Z,4.80
2017-12-03T10:54:11.872Z,4.80
2017-12-03T10:56:47.383Z,4.80
2017-12-03T10:59:18.011Z,4.70
2017-12-03T11:01:52.858Z,4.70
2017-12-03T11:04:22.298Z,4.80
2017-12-03T11:06:51.007Z,4.70
2017-12-03T11:09:19.757Z,4.80
2017-12-03T11:11:54.527Z,4.90
2017-12-03T11:14:23.228Z,4.90
2017-12-03T11:16:58.154Z,5.00
2017-12-03T11:19:26.835Z,4.90
2017-12-03T11:21:57.526Z,4.80
2017-12-03T11:24:26.208Z,4.60
2017-12-03T11:26:54.891Z,4.40
2017-12-03T11:29:29.884Z,4.40
2017-12-03T11:31:58.573Z,4.40
2017-12-03T11:34:27.251Z,4.40
2017-12-03T11:36:55.931Z,4.40
2017-12-03T11:39:30.827Z,4.40
2017-12-03T11:42:05.635Z,4.40
2017-12-03T11:44:35.111Z,4.60
2017-12-03T11:47:07.085Z,4.70
2017-12-03T11:49:35.764Z,4.70
2017-12-03T11:52:04.456Z,4.80
2017-12-03T11:54:39.376Z,4.80
2017-12-03T11:57:08.056Z,4.70
2017-12-03T11:59:43.124Z,4.60
2017-12-03T12:02:18.058Z,4.40
2017-12-03T12:04:46.759Z,4.30
2017-12-03T12:07:21.692Z,4.20
2017-12-03T12:09:50.370Z,4.20
2017-12-03T12:12:25.347Z,4.20
2017-12-03T12:14:55.055Z,4.30
2017-12-03T12:17:23.735Z,4.30
2017-12-03T12:19:54.043Z,4.20
2017-12-03T12:22:33.497Z,4.10
2017-12-03T12:25:02.180Z,4.10
2017-12-03T12:27:30.863Z,4.10
2017-12-03T12:30:06.491Z,4.10
2017-12-03T12:32:35.187Z,4.00
2017-12-03T12:35:10.194Z,4.00
2017-12-03T12:37:45.408Z,3.90
2017-12-03T12:40:22.536Z,3.70
2017-12-03T12:42:52.377Z,3.60
2017-12-03T12:45:29.147Z,3.60
2017-12-03T12:47:57.842Z,3.60
2017-12-03T12:50:32.666Z,3.50
2017-12-03T12:53:01.359Z,3.40
2017-12-03T12:55:30.043Z,3.50
2017-12-03T12:57:58.722Z,3.50
2017-12-03T13:00:27.411Z,3.50
2017-12-03T13:03:03.400Z,3.50
2017-12-03T13:05:36.763Z,3.30
2017-12-03T13:08:12.292Z,3.10
2017-12-03T13:10:41.906Z,3.00
2017-12-03T13:13:17.450Z,3.10
2017-12-03T13:15:46.150Z,3.00
2017-12-03T13:18:20.963Z,3.10
2017-12-03T13:20:49.659Z,3.00
2017-12-03T13:23:24.438Z,3.00
2017-12-03T13:25:53.142Z,3.10
2017-12-03T13:28:21.857Z,3.10
2017-12-03T13:30:56.836Z,3.10
2017-12-03T13:33:25.826Z,3.10
2017-12-03T13:36:00.982Z,3.10
2017-12-03T13:38:36.772Z,3.10
2017-12-03T13:41:07.410Z,3.00
2017-12-03T13:43:36.490Z,3.00
2017-12-03T13:46:11.428Z,3.00
2017-12-03T13:48:45.871Z,3.10
2017-12-03T13:51:14.603Z,3.20
2017-12-03T13:53:49.579Z,3.30
2017-12-03T13:56:18.371Z,3.40
2017-12-03T13:58:47.924Z,3.40
2017-12-03T14:01:16.598Z,3.40
2017-12-03T14:03:46.063Z,3.30
2017-12-03T14:06:14.760Z,3.30
2017-12-03T14:08:47.426Z,3.20
2017-12-03T14:11:16.100Z,3.20
2017-12-03T14:13:44.787Z,3.20
2017-12-03T14:16:19.591Z,3.20
2017-12-03T14:18:48.314Z,3.30
2017-12-03T14:21:17.926Z,3.30
2017-12-03T14:23:46.611Z,3.30
2017-12-03T14:26:21.407Z,3.30
2017-12-03T14:28:56.212Z,3.30
2017-12-03T14:31:24.917Z,3.30
2017-12-03T14:33:54.632Z,3.30
2017-12-03T14:36:30.391Z,3.30
2017-12-03T14:39:05.180Z,3.30
2017-12-03T14:41:33.859Z,3.30
2017-12-03T14:44:03.309Z,3.20
2017-12-03T14:46:32.002Z,3.10
2017-12-03T14:49:00.679Z,3.20
2017-12-03T14:51:35.596Z,3.20
2017-12-03T14:54:10.537Z,3.20
2017-12-03T14:56:39.223Z,3.20
2017-12-03T14:59:14.258Z,3.20
2017-12-03T15:01:42.979Z,3.20
2017-12-03T15:04:17.816Z,3.20
2017-12-03T15:06:52.736Z,3.20
2017-12-03T15:09:21.412Z,3.20
2017-12-03T15:11:50.090Z,3.20
2017-12-03T15:14:18.834Z,3.10
2017-12-03T15:16:47.517Z,3.10
2017-12-03T15:19:22.465Z,3.00
2017-12-03T15:21:57.571Z,3.10
2017-12-03T15:24:32.491Z,3.00
2017-12-03T15:27:02.724Z,3.10
2017-12-03T15:29:32.193Z,3.10
2017-12-03T15:32:00.914Z,3.00
2017-12-03T15:34:35.815Z,3.00
2017-12-03T15:37:04.503Z,3.00
2017-12-03T15:39:33.209Z,2.90
2017-12-03T15:42:02.660Z,2.90
2017-12-03T15:44:31.357Z,2.90
2017-12-03T15:47:06.252Z,2.90
2017-12-03T15:49:41.137Z,2.90
2017-12-03T15:52:09.823Z,2.90
2017-12-03T15:54:38.511Z,2.90
2017-12-03T15:57:13.497Z,2.90
2017-12-03T15:59:42.186Z,2.80
2017-12-03T16:02:17.199Z,2.90
2017-12-03T16:04:45.904Z,2.90
2017-12-03T16:07:14.593Z,2.90
2017-12-03T16:09:44.216Z,2.90
2017-12-03T16:12:12.891Z,3.00
2017-12-03T16:14:41.574Z,3.00
2017-12-03T16:17:10.371Z,2.90
2017-12-03T16:19:45.565Z,2.90
2017-12-03T16:22:15.141Z,3.00
2017-12-03T16:24:43.883Z,2.90
2017-12-03T16:27:12.562Z,3.00
2017-12-03T16:29:42.155Z,2.90
2017-12-03T16:32:11.598Z,2.90
2017-12-03T16:34:46.451Z,2.80
2017-12-03T16:37:21.363Z,2.80
2017-12-03T16:39:56.290Z,2.80
2017-12-03T16:42:24.975Z,2.80
2017-12-03T16:44:59.940Z,2.90
2017-12-03T16:47:28.852Z,2.90
2017-12-03T16:50:03.663Z,2.80
2017-12-03T16:52:32.389Z,2.90
2017-12-03T16:55:07.275Z,2.90
2017-12-03T16:57:35.963Z,2.80
2017-12-03T17:00:10.883Z,2.80
2017-12-03T17:02:39.601Z,2.80
2017-12-03T17:05:09.095Z,2.80
2017-12-03T17:07:37.779Z,2.70
2017-12-03T17:10:07.497Z,2.80
2017-12-03T17:12:36.405Z,2.80
2017-12-03T17:15:05.062Z,2.90
2017-12-03T17:17:39.911Z,2.90
2017-12-03T17:20:08.582Z,2.90
2017-12-03T17:22:37.355Z,2.90
2017-12-03T17:25:07.449Z,2.90
2017-12-03T17:27:36.135Z,2.90
2017-12-03T17:30:04.851Z,2.90
2017-12-03T17:32:39.831Z,2.80
2017-12-03T17:35:08.523Z,2.80
2017-12-03T17:37:43.392Z,2.80
2017-12-03T17:40:12.081Z,2.80
2017-12-03T17:42:47.000Z,2.80
2017-12-03T17:45:21.919Z,2.80
2017-12-03T17:47:56.807Z,2.80
2017-12-03T17:50:31.639Z,2.80
2017-12-03T17:53:01.316Z,2.80
2017-12-03T17:55:30.007Z,2.90
2017-12-03T17:57:58.688Z,2.90
2017-12-03T18:00:27.380Z,2.90
2017-12-03T18:02:56.086Z,2.90
2017-12-03T18:05:24.787Z,2.90
2017-12-03T18:07:55.495Z,2.90
2017-12-03T18:10:30.322Z,2.90
2017-12-03T18:12:59.766Z,3.00
2017-12-03T18:15:28.459Z,2.90
2017-12-03T18:18:04.208Z,2.90
2017-12-03T18:20:33.864Z,2.90
2017-12-03T18:23:02.551Z,2.90
2017-12-03T18:25:37.475Z,3.00
2017-12-03T18:28:06.163Z,3.00
2017-12-03T18:30:34.992Z,3.00
2017-12-03T18:33:04.635Z,3.00
2017-12-03T18:35:40.585Z,3.10
2017-12-03T18:38:15.512Z,2.90
2017-12-03T18:40:44.196Z,2.90
2017-12-03T18:43:12.939Z,2.90
2017-12-03T18:45:47.689Z,2.90
2017-12-03T18:48:23.383Z,2.90
2017-12-03T18:50:52.071Z,2.90
2017-12-03T18:53:26.965Z,2.90
2017-12-03T18:55:59.467Z,2.80
2017-12-03T18:58:28.162Z,2.80
2017-12-03T19:00:56.852Z,2.70
2017-12-03T19:03:32.396Z,2.80
2017-12-03T19:06:07.331Z,2.70
2017-12-03T19:08:36.036Z,2.80
2017-12-03T19:11:10.848Z,2.80
2017-12-03T19:13:39.598Z,2.90
2017-12-03T19:16:14.428Z,2.90
2017-12-03T19:18:43.131Z,3.00
2017-12-03T19:21:11.815Z,2.90
2017-12-03T19:23:46.771Z,2.90
2017-12-03T19:26:15.451Z,3.00
2017-12-03T19:28:44.125Z,2.90
2017-12-03T19:31:14.768Z,2.90
2017-12-03T19:33:49.745Z,2.80
2017-12-03T19:36:25.649Z,2.80
2017-12-03T19:38:55.975Z,2.90
2017-12-03T19:41:26.446Z,3.00
2017-12-03T19:44:01.235Z,2.90
2017-12-03T19:46:36.155Z,2.80
2017-12-03T19:49:04.860Z,2.80
2017-12-03T19:51:39.672Z,2.70
2017-12-03T19:54:14.531Z,2.70
2017-12-03T19:56:46.124Z,2.80
2017-12-03T19:59:21.125Z,2.80
2017-12-03T20:01:59.846Z,2.90
2017-12-03T20:04:28.523Z,2.90
2017-12-03T20:07:06.694Z,2.90
2017-12-03T20:09:35.379Z,2.90
2017-12-03T20:12:11.006Z,2.90
2017-12-03T20:14:45.975Z,2.90
2017-12-03T20:17:14.646Z,3.00
2017-12-03T20:19:49.586Z,3.00
2017-12-03T20:22:24.512Z,3.00
2017-12-03T20:25:00.396Z,3.10
2017-12-03T20:27:35.344Z,3.20
2017-12-03T20:30:06.894Z,3.20
2017-12-03T20:32:36.372Z,3.20
2017-12-03T20:35:05.835Z,3.20
2017-12-03T20:37:35.569Z,3.20
2017-12-03T20:40:04.191Z,3.20
2017-12-03T20:42:37.637Z,3.20
2017-12-03T20:45:07.303Z,3.20
2017-12-03T20:47:36.762Z,3.20
2017-12-03T20:50:08.363Z,3.20
2017-12-03T20:52:37.038Z,3.30
2017-12-03T20:55:11.984Z,3.20
2017-12-03T20:57:46.983Z,3.20
2017-12-03T21:00:21.902Z,3.10
2017-12-03T21:02:50.670Z,3.10
2017-12-03T21:05:19.403Z,3.00
2017-12-03T21:07:48.075Z,2.90
2017-12-03T21:10:23.043Z,2.80
2017-12-03T21:12:52.522Z,2.80
2017-12-03T21:15:22.001Z,2.80
2017-12-03T21:17:50.676Z,2.80
2017-12-03T21:20:26.788Z,2.80
2017-12-03T21:22:56.906Z,2.60
2017-12-03T21:25:26.568Z,2.60
2017-12-03T21:28:01.843Z,2.70
2017-12-03T21:30:37.100Z,2.60
2017-12-03T21:33:14.807Z,2.70
2017-12-03T21:35:44.208Z,2.70
2017-12-03T21:38:21.859Z,2.80
2017-12-03T21:40:53.198Z,2.70
2017-12-03T21:43:28.921Z,2.80
2017-12-03T21:45:58.308Z,2.80
2017-12-03T21:48:27.500Z,2.80
2017-12-03T21:50:59.504Z,2.80
2017-12-03T21:53:34.507Z,2.90
2017-12-03T21:56:17.722Z,2.90
2017-12-03T21:58:48.351Z,2.90
2017-12-03T22:01:19.248Z,2.90
2017-12-03T22:03:49.299Z,2.80
2017-12-03T22:06:24.661Z,2.90
2017-12-03T22:08:55.412Z,2.80
2017-12-03T22:11:30.528Z,2.80
2017-12-03T22:14:01.154Z,2.80
2017-12-03T22:16:29.923Z,2.80
2017-12-03T22:18:59.748Z,2.90
2017-12-03T22:21:29.006Z,2.90
2017-12-03T22:23:58.508Z,3.00
2017-12-03T22:26:34.369Z,2.90
2017-12-03T22:29:03.847Z,3.00
2017-12-03T22:31:32.719Z,3.00
2017-12-03T22:34:01.370Z,3.10
2017-12-03T22:36:31.133Z,3.00
2017-12-03T22:38:59.810Z,2.90
2017-12-03T22:41:29.679Z,3.00
2017-12-03T22:43:59.216Z,3.00
2017-12-03T22:46:27.884Z,3.00
2017-12-03T22:48:56.753Z,3.10
2017-12-03T22:51:26.550Z,2.90
2017-12-03T22:54:01.475Z,2.90
2017-12-03T22:56:30.281Z,2.90
2017-12-03T22:58:58.984Z,2.80
2017-12-03T23:01:28.718Z,2.80
2017-12-03T23:04:03.679Z,2.70
2017-12-03T23:06:32.342Z,2.80
2017-12-03T23:09:07.156Z,2.70
2017-12-03T23:11:36.575Z,2.70
2017-12-03T23:14:05.252Z,2.70
2017-12-03T23:16:40.171Z,2.80
2017-12-03T23:19:15.059Z,2.80
2017-12-03T23:21:43.758Z,2.80
2017-12-03T23:24:12.418Z,2.80
2017-12-03T23:26:41.354Z,2.80
2017-12-03T23:29:16.328Z,2.80
2017-12-03T23:31:45.006Z,2.90
2017-12-03T23:34:20.027Z,3.00
2017-12-03T23:36:48.869Z,3.00
2017-12-03T23:39:17.728Z,2.90
2017-12-03T23:41:52.801Z,3.00
2017-12-03T23:44:27.611Z,3.00
2017-12-03T23:46:56.282Z,2.90
2017-12-03T23:49:24.954Z,2.80
2017-12-03T23:51:53.623Z,2.80
2017-12-03T23:54:22.310Z,2.80
2017-12-03T23:56:50.995Z,2.70
2017-12-03T23:59:19.642Z,2.70
